Time;durP1;ratioP1;P1;durP2;ratioP2;P2;SDS_P1;SDS_P2;PMS_P1;PMS_P2;Temp;Humidity;BMP_temperature;BMP_pressure;BME280_temperature;BME280_humidity;BME280_pressure;Samples;Min_cycle;Max_cycle;Signal;HPM_P1;HPM_P2
2022/01/02 00:00:13;;;;;;;12.40;4.00;;;11.50;99.90;;;;;;4948191;28;20459;-66
2022/01/02 00:02:41;;;;;;;8.63;3.67;;;11.50;99.90;;;;;;4942598;28;20050;-66
2022/01/02 00:05:08;;;;;;;9.25;4.05;;;11.50;99.90;;;;;;4948613;28;20043;-66
2022/01/02 00:07:39;;;;;;;11.07;3.58;;;11.50;99.90;;;;;;4932813;29;20043;-66
2022/01/02 00:10:07;;;;;;;7.28;3.60;;;11.50;99.80;;;;;;4933181;29;20078;-66
2022/01/02 00:12:34;;;;;;;8.20;4.10;;;11.50;99.80;;;;;;4932765;29;20043;-65
2022/01/02 00:15:05;;;;;;;6.57;2.53;;;11.50;99.90;;;;;;4933679;29;20631;-65
2022/01/02 00:17:31;;;;;;;12.50;4.13;;;11.40;99.90;;;;;;4931940;29;20043;-65
2022/01/02 00:20:03;;;;;;;8.13;4.22;;;11.40;99.90;;;;;;4951360;29;20450;-65
2022/01/02 00:22:34;;;;;;;5.13;3.80;;;11.50;99.90;;;;;;4931475;29;20044;-66
2022/01/02 00:25:04;;;;;;;9.32;4.03;;;11.50;99.90;;;;;;4903077;29;20047;-66
2022/01/02 00:27:31;;;;;;;;;;;11.50;99.70;;;;;;4932213;29;20047;-66
2022/01/02 00:29:58;;;;;;;11.95;3.88;;;11.50;99.50;;;;;;4949039;29;19926;-66
2022/01/02 00:32:24;;;;;;;8.50;3.72;;;11.60;99.50;;;;;;4949871;29;20054;-66
2022/01/02 00:34:53;;;;;;;11.52;4.88;;;11.60;99.30;;;;;;4948762;29;20054;-66
2022/01/02 00:37:19;;;;;;;10.30;4.65;;;11.60;99.20;;;;;;4902352;29;20139;-65
2022/01/02 00:39:45;;;;;;;9.07;3.97;;;11.60;99.20;;;;;;4947610;29;20134;-66
2022/01/02 00:42:33;;;;;;;10.75;3.88;;;11.60;99.20;;;;;;4951023;29;20043;-65
2022/01/02 00:45:25;;;;;;;11.02;4.72;;;11.60;99.20;;;;;;4932308;29;20503;-66
2022/01/02 00:48:03;;;;;;;6.50;4.00;;;11.50;99.70;;;;;;4947653;29;20109;-66
2022/01/02 00:50:39;;;;;;;7.85;3.80;;;11.50;99.50;;;;;;4951065;29;20035;-66
2022/01/02 00:53:09;;;;;;;13.98;4.38;;;11.50;99.70;;;;;;4949250;29;20043;-65
2022/01/02 00:55:35;;;;;;;9.70;4.50;;;11.40;99.90;;;;;;4932536;29;20525;-65
2022/01/02 00:58:02;;;;;;;7.97;4.07;;;11.30;99.90;;;;;;4932717;29;20051;-65
2022/01/02 01:00:30;;;;;;;8.73;4.32;;;11.30;99.90;;;;;;4931913;29;20043;-65
2022/01/02 01:02:57;;;;;;;6.80;3.72;;;11.30;99.90;;;;;;4931491;29;20051;-65
2022/01/02 01:05:24;;;;;;;10.18;4.75;;;11.20;99.90;;;;;;4931066;29;20039;-66
2022/01/02 01:07:54;;;;;;;7.43;4.28;;;11.30;99.90;;;;;;4932567;29;20534;-66
2022/01/02 01:10:22;;;;;;;17.08;4.50;;;11.20;99.90;;;;;;4948839;28;20083;-65
2022/01/02 01:12:52;;;;;;;11.23;4.85;;;11.20;99.90;;;;;;4916654;29;20374;-65
2022/01/02 01:15:18;;;;;;;10.05;4.70;;;11.10;99.90;;;;;;4949863;29;20094;-65
2022/01/02 01:17:46;;;;;;;12.85;4.88;;;11.10;99.90;;;;;;4931125;29;20066;-65
2022/01/02 01:20:13;;;;;;;10.27;4.15;;;11.20;99.90;;;;;;4950212;29;20047;-65
2022/01/02 01:22:40;;;;;;;10.60;4.50;;;11.10;99.90;;;;;;4931064;29;20047;-65
2022/01/02 01:25:11;;;;;;;18.05;4.70;;;11.20;99.90;;;;;;4932080;29;20097;-65
2022/01/02 01:27:37;;;;;;;9.18;4.53;;;11.20;99.90;;;;;;4948235;29;20079;-65
2022/01/02 01:30:04;;;;;;;11.93;4.68;;;11.20;99.90;;;;;;4932501;29;20046;-65
2022/01/02 01:32:30;;;;;;;12.55;4.35;;;11.20;99.90;;;;;;4931903;29;20043;-65
2022/01/02 01:34:56;;;;;;;12.30;4.35;;;11.20;99.90;;;;;;4928403;29;20103;-65
2022/01/02 01:37:21;;;;;;;12.75;4.32;;;11.20;99.90;;;;;;4948379;29;20122;-65
2022/01/02 01:39:47;;;;;;;18.02;5.07;;;11.20;99.90;;;;;;4930764;29;20043;-66
2022/01/02 01:42:13;;;;;;;13.75;4.28;;;11.20;99.90;;;;;;4916478;29;20042;-65
2022/01/02 01:47:25;;;;;;;10.98;4.82;;;11.20;99.90;;;;;;4928533;29;20083;-65
2022/01/02 01:49:51;;;;;;;15.75;4.55;;;11.20;99.90;;;;;;4949198;29;20059;-65
2022/01/02 01:52:17;;;;;;;13.90;5.20;;;11.20;99.90;;;;;;4948470;29;20493;-66
2022/01/02 01:54:42;;;;;;;11.07;3.92;;;11.20;99.90;;;;;;4949283;29;20050;-65
2022/01/02 01:57:08;;;;;;;13.52;4.70;;;11.20;99.90;;;;;;4947796;29;20058;-66
2022/01/02 01:59:34;;;;;;;9.15;4.55;;;11.20;99.90;;;;;;4931978;29;20039;-66
2022/01/02 02:02:01;;;;;;;13.13;5.35;;;11.20;99.90;;;;;;4946472;29;20461;-66
2022/01/02 02:04:28;;;;;;;16.85;4.88;;;11.20;99.90;;;;;;4931827;29;20551;-66
2022/01/02 02:06:56;;;;;;;15.10;5.05;;;11.20;99.90;;;;;;4931208;29;20062;-65
2022/01/02 02:09:24;;;;;;;14.88;4.45;;;11.20;99.90;;;;;;4948353;29;20049;-66
2022/01/02 02:11:51;;;;;;;14.13;5.03;;;11.30;99.90;;;;;;4932163;29;20055;-65
2022/01/02 02:14:17;;;;;;;13.32;4.97;;;11.30;99.90;;;;;;4930168;29;20501;-65
2022/01/02 02:16:43;;;;;;;13.00;4.93;;;11.30;99.90;;;;;;4947396;29;20050;-66
2022/01/02 02:19:08;;;;;;;13.07;4.95;;;11.30;99.90;;;;;;4946474;29;20051;-65
2022/01/02 02:21:36;;;;;;;17.58;5.93;;;11.30;99.90;;;;;;4931416;29;20537;-65
2022/01/02 02:24:07;;;;;;;18.10;6.00;;;11.30;99.90;;;;;;4947824;29;20090;-65
2022/01/02 02:26:34;;;;;;;12.50;5.30;;;11.30;99.90;;;;;;4947450;28;20046;-65
2022/01/02 02:29:02;;;;;;;10.80;5.28;;;11.30;99.90;;;;;;4930850;29;20521;-65
2022/01/02 02:31:28;;;;;;;18.92;6.15;;;11.20;99.90;;;;;;4930415;29;20062;-65
2022/01/02 02:33:54;;;;;;;16.15;5.63;;;11.20;99.90;;;;;;4948473;29;20051;-65
2022/01/02 02:36:20;;;;;;;9.65;5.00;;;11.20;99.90;;;;;;4914447;29;20078;-65
2022/01/02 02:38:46;;;;;;;16.40;5.72;;;11.20;99.90;;;;;;4948315;29;20128;-65
2022/01/02 02:41:12;;;;;;;17.85;6.47;;;11.20;99.90;;;;;;4946973;28;20438;-66
2022/01/02 02:49:05;;;;;;;20.15;5.95;;;11.20;99.90;;;;;;4946551;29;20106;-66
2022/01/02 02:51:51;;;;;;;25.35;6.15;;;11.20;99.90;;;;;;4948799;29;20253;-66
2022/01/02 02:54:20;;;;;;;21.98;6.75;;;11.10;99.90;;;;;;4930712;29;20765;-66
2022/01/02 02:59:23;;;;;;;21.98;7.30;;;11.10;99.90;;;;;;4931304;29;20394;-67
2022/01/02 03:01:49;;;;;;;14.15;6.25;;;11.00;99.90;;;;;;4946781;29;20055;-67
2022/01/02 03:04:15;;;;;;;21.70;7.07;;;11.00;99.90;;;;;;4931405;29;20542;-67
2022/01/02 03:06:41;;;;;;;23.15;6.13;;;11.00;99.90;;;;;;4946063;28;20130;-67
2022/01/02 03:09:10;;;;;;;13.98;6.13;;;11.00;99.90;;;;;;4930460;29;20047;-67
2022/01/02 03:11:41;;;;;;;22.10;7.20;;;11.00;99.90;;;;;;4931046;29;20510;-67
2022/01/02 03:14:10;;;;;;;19.40;6.78;;;11.00;99.90;;;;;;4914016;29;20853;-67
2022/01/02 03:16:36;;;;;;;18.13;6.07;;;11.00;99.90;;;;;;4948634;29;20545;-67
2022/01/02 03:19:03;;;;;;;16.13;6.22;;;11.00;99.90;;;;;;4929152;29;20555;-67
2022/01/02 03:21:29;;;;;;;19.40;6.40;;;11.00;99.90;;;;;;4930764;29;20185;-68
2022/01/02 03:23:55;;;;;;;22.80;6.82;;;11.00;99.90;;;;;;4913749;29;20544;-68
2022/01/02 03:26:21;;;;;;;24.55;7.32;;;11.00;99.90;;;;;;4931163;29;20880;-68
2022/01/02 03:28:47;;;;;;;20.85;6.95;;;11.00;99.90;;;;;;4945999;28;20043;-67
2022/01/02 03:31:13;;;;;;;23.20;7.15;;;11.00;99.90;;;;;;4947494;29;20122;-68
2022/01/02 03:33:40;;;;;;;22.08;6.15;;;11.00;99.90;;;;;;4932377;29;20043;-68
2022/01/02 03:36:06;;;;;;;17.70;7.15;;;11.00;99.90;;;;;;4932336;29;20072;-68
2022/01/02 03:38:32;;;;;;;19.17;7.28;;;11.00;99.90;;;;;;4950653;28;20043;-68
2022/01/02 03:40:58;;;;;;;22.98;7.05;;;11.00;99.90;;;;;;4916933;29;20046;-68
2022/01/02 03:43:23;;;;;;;18.98;6.60;;;11.00;99.90;;;;;;4934621;29;20047;-68
2022/01/02 03:45:50;;;;;;;24.33;6.78;;;11.00;99.90;;;;;;4949430;29;20549;-68
2022/01/02 03:48:21;;;;;;;18.05;6.85;;;11.00;99.90;;;;;;4904559;29;21309;-67
2022/01/02 03:50:47;;;;;;;19.42;6.68;;;11.00;99.90;;;;;;4934536;29;20043;-67
2022/01/02 03:53:12;;;;;;;18.05;7.15;;;11.00;99.90;;;;;;4932653;29;20113;-68
2022/01/02 03:55:39;;;;;;;18.30;7.20;;;11.00;99.90;;;;;;4934078;29;20050;-67
2022/01/02 03:58:05;;;;;;;35.38;7.70;;;11.00;99.90;;;;;;4932478;29;20055;-68
2022/01/02 04:00:31;;;;;;;24.42;7.03;;;11.00;99.90;;;;;;4934240;29;20549;-67
2022/01/02 04:02:57;;;;;;;26.90;6.32;;;11.00;99.90;;;;;;4932168;29;20043;-68
2022/01/02 04:05:23;;;;;;;31.45;7.30;;;11.00;99.90;;;;;;4933820;29;20046;-67
2022/01/02 04:07:48;;;;;;;25.48;6.75;;;10.90;99.90;;;;;;4918245;29;20042;-67
2022/01/02 04:10:17;;;;;;;24.42;7.57;;;10.90;99.90;;;;;;4933075;29;20054;-67
2022/01/02 04:12:42;;;;;;;19.33;7.70;;;10.90;99.90;;;;;;4933665;29;20181;-68
2022/01/02 04:15:11;;;;;;;16.95;7.47;;;10.90;99.90;;;;;;4932123;29;20129;-67
2022/01/02 04:17:37;;;;;;;21.02;7.50;;;10.90;99.90;;;;;;4934243;29;20129;-67
2022/01/02 04:20:06;;;;;;;24.67;7.15;;;10.90;99.90;;;;;;4932349;29;20098;-67
2022/01/02 04:22:32;;;;;;;21.75;7.78;;;10.90;99.90;;;;;;4918160;29;20390;-68
2022/01/02 04:24:58;;;;;;;19.15;6.55;;;10.90;99.90;;;;;;4932553;29;20228;-67
2022/01/02 04:27:24;;;;;;;20.55;6.85;;;10.90;99.90;;;;;;4917728;29;20043;-67
2022/01/02 04:29:50;;;;;;;10.82;5.53;;;10.90;99.90;;;;;;4933855;29;20488;-68
2022/01/02 04:32:17;;;;;;;21.67;7.43;;;11.00;99.90;;;;;;4948194;28;20054;-67
2022/01/02 04:34:43;;;;;;;26.45;8.07;;;11.00;99.90;;;;;;4948867;28;20197;-67
2022/01/02 04:37:10;;;;;;;18.58;6.80;;;11.00;99.90;;;;;;4931857;29;20066;-67
2022/01/02 04:39:36;;;;;;;24.80;7.10;;;11.00;99.90;;;;;;4934008;29;20051;-67
2022/01/02 04:42:02;;;;;;;24.35;6.25;;;11.00;99.90;;;;;;4932490;29;20109;-67
2022/01/02 04:44:28;;;;;;;21.40;5.95;;;11.00;99.90;;;;;;4932389;29;20471;-68
2022/01/02 04:46:54;;;;;;;23.38;7.32;;;11.00;99.90;;;;;;4917452;29;20048;-67
2022/01/02 04:49:20;;;;;;;26.48;7.60;;;11.00;99.90;;;;;;4932111;29;20050;-67
2022/01/02 04:51:46;;;;;;;20.02;6.85;;;11.00;99.90;;;;;;4933466;29;20062;-68
2022/01/02 04:54:11;;;;;;;23.45;7.03;;;11.00;99.90;;;;;;4931423;29;20113;-67
2022/01/02 04:56:37;;;;;;;27.55;7.30;;;11.00;99.90;;;;;;4930026;29;20043;-68
2022/01/02 04:59:03;;;;;;;24.50;7.15;;;11.00;99.90;;;;;;4931144;29;20051;-67
2022/01/02 05:01:29;;;;;;;18.55;6.07;;;11.00;99.90;;;;;;4933041;29;20138;-67
2022/01/02 05:03:54;;;;;;;23.80;7.18;;;11.00;99.90;;;;;;4932045;29;20086;-68
2022/01/02 05:06:20;;;;;;;20.58;6.65;;;11.00;99.90;;;;;;4932008;29;20051;-68
2022/01/02 05:08:46;;;;;;;23.83;6.80;;;11.00;99.90;;;;;;4932613;29;20564;-68
2022/01/02 05:11:16;;;;;;;20.27;5.57;;;11.00;99.90;;;;;;4931274;29;20383;-68
2022/01/02 05:13:43;;;;;;;22.23;6.78;;;11.00;99.90;;;;;;4933000;29;20154;-68
2022/01/02 05:16:09;;;;;;;21.50;6.43;;;11.10;99.90;;;;;;4931043;29;20054;-68
2022/01/02 05:18:34;;;;;;;16.10;5.70;;;11.10;99.90;;;;;;4932056;29;20055;-68
2022/01/02 05:21:02;;;;;;;25.73;7.10;;;11.20;99.90;;;;;;4916643;29;20545;-68
2022/01/02 05:23:29;;;;;;;21.75;6.13;;;11.20;99.90;;;;;;4948502;28;20086;-68
2022/01/02 05:25:57;;;;;;;28.00;6.47;;;11.20;99.90;;;;;;4932378;29;20130;-68
2022/01/02 05:28:24;;;;;;;22.85;6.75;;;11.20;99.90;;;;;;4931472;29;20966;-68
2022/01/02 05:30:51;;;;;;;18.20;6.25;;;11.20;99.90;;;;;;4932851;29;20383;-68
2022/01/02 05:33:16;;;;;;;18.13;5.35;;;11.20;99.90;;;;;;4946425;29;20035;-68
2022/01/02 05:35:42;;;;;;;24.00;5.50;;;11.20;99.90;;;;;;4949141;28;20054;-68
2022/01/02 05:38:08;;;;;;;21.83;5.45;;;11.20;99.90;;;;;;4960443;28;20051;-68
2022/01/02 05:40:34;;;;;;;17.55;5.97;;;11.20;99.90;;;;;;4945277;28;20105;-68
2022/01/02 05:43:05;;;;;;;16.48;5.45;;;11.20;99.90;;;;;;4948817;28;20078;-68
2022/01/02 05:45:31;;;;;;;20.90;5.80;;;11.20;99.90;;;;;;4926209;29;20503;-68
2022/01/02 05:47:58;;;;;;;16.92;5.13;;;11.20;99.90;;;;;;4946262;28;20458;-67
2022/01/02 05:50:24;;;;;;;18.77;5.20;;;11.20;99.90;;;;;;4960312;28;20050;-67
2022/01/02 05:52:50;;;;;;;20.90;5.43;;;11.30;99.90;;;;;;4946986;29;20058;-67
2022/01/02 05:55:16;;;;;;;20.92;5.70;;;11.30;99.90;;;;;;4945702;28;20043;-67
2022/01/02 05:57:42;;;;;;;25.92;5.40;;;11.20;99.90;;;;;;4940726;28;20043;-68
2022/01/02 06:00:09;;;;;;;25.13;5.72;;;11.20;99.90;;;;;;4931311;29;20051;-68
2022/01/02 06:02:34;;;;;;;27.55;6.43;;;11.20;99.90;;;;;;4930607;29;20045;-68
2022/01/02 06:05:02;;;;;;;23.17;4.95;;;11.20;99.90;;;;;;4931620;29;20051;-68
2022/01/02 06:07:30;;;;;;;19.40;5.80;;;11.20;99.90;;;;;;4946161;28;20058;-67
2022/01/02 06:09:56;;;;;;;18.92;5.25;;;11.20;99.90;;;;;;4931625;29;20039;-67
2022/01/02 06:12:23;;;;;;;21.02;5.30;;;11.20;99.90;;;;;;4930227;29;20055;-67
2022/01/02 06:14:49;;;;;;;25.45;5.93;;;11.20;99.90;;;;;;4931958;29;20055;-68
2022/01/02 06:17:15;;;;;;;24.83;5.70;;;11.20;99.90;;;;;;4930634;29;20079;-67
2022/01/02 06:19:40;;;;;;;17.90;5.22;;;11.20;99.90;;;;;;4931066;29;20081;-67
2022/01/02 06:22:08;;;;;;;17.30;4.72;;;11.20;99.90;;;;;;4931699;29;20105;-67
2022/01/02 06:24:33;;;;;;;20.75;4.85;;;11.30;99.90;;;;;;4947926;29;20054;-67
2022/01/02 06:26:59;;;;;;;12.57;4.50;;;11.30;99.90;;;;;;4915808;29;20055;-67
2022/01/02 06:29:25;;;;;;;17.90;4.60;;;11.30;99.90;;;;;;4929749;29;20417;-67
2022/01/02 06:31:51;;;;;;;21.38;4.53;;;11.30;99.90;;;;;;4931521;29;20070;-67
2022/01/02 06:34:17;;;;;;;21.80;5.30;;;11.40;99.90;;;;;;4946376;28;20541;-67
2022/01/02 06:36:43;;;;;;;17.05;4.22;;;11.40;99.90;;;;;;4930407;29;20450;-68
2022/01/02 06:39:10;;;;;;;20.17;5.05;;;11.40;99.90;;;;;;4915477;29;20055;-67
2022/01/02 06:41:36;;;;;;;15.57;4.55;;;11.40;99.90;;;;;;4930079;29;20043;-67
2022/01/02 06:44:01;;;;;;;14.07;4.18;;;11.40;99.90;;;;;;4931874;29;20051;-67
2022/01/02 06:46:27;;;;;;;16.48;3.95;;;11.50;99.90;;;;;;4929590;29;20545;-67
2022/01/02 06:48:53;;;;;;;17.33;3.70;;;11.50;99.90;;;;;;4947320;28;20047;-67
2022/01/02 06:51:18;;;;;;;23.88;5.32;;;11.50;99.90;;;;;;4929675;29;20090;-67
2022/01/02 06:53:44;;;;;;;18.88;4.57;;;11.50;99.90;;;;;;4930993;29;20102;-67
2022/01/02 06:56:11;;;;;;;20.42;4.68;;;11.50;99.90;;;;;;4948588;29;20055;-67
2022/01/02 06:58:38;;;;;;;19.13;4.10;;;11.50;99.90;;;;;;4930288;29;20119;-68
2022/01/02 07:01:05;;;;;;;14.82;3.90;;;11.50;99.90;;;;;;4916245;29;20063;-68
2022/01/02 07:03:32;;;;;;;21.95;4.95;;;11.50;99.90;;;;;;4929027;29;20553;-68
2022/01/02 07:06:00;;;;;;;25.30;4.53;;;11.50;99.90;;;;;;4947409;28;20469;-67
2022/01/02 07:08:27;;;;;;;12.70;3.00;;;11.50;99.90;;;;;;4930883;29;20521;-68
2022/01/02 07:10:54;;;;;;;14.63;3.97;;;11.50;99.90;;;;;;4935196;29;20047;-68
2022/01/02 07:13:20;;;;;;;12.60;3.13;;;11.60;99.90;;;;;;4918433;29;20077;-67
2022/01/02 07:15:46;;;;;;;10.23;3.45;;;11.60;99.90;;;;;;4933595;29;20079;-67
2022/01/02 07:18:11;;;;;;;10.30;3.30;;;11.60;99.90;;;;;;4934923;29;20039;-67
2022/01/02 07:20:37;;;;;;;12.68;3.28;;;11.60;99.90;;;;;;4933743;29;20046;-67
2022/01/02 07:23:03;;;;;;;11.70;3.28;;;11.60;99.90;;;;;;4934888;29;20051;-67
2022/01/02 07:25:28;;;;;;;13.35;4.10;;;11.60;99.90;;;;;;4932848;29;20047;-67
2022/01/02 07:27:55;;;;;;;19.83;3.83;;;11.70;99.90;;;;;;4950645;29;20516;-67
2022/01/02 07:30:21;;;;;;;13.48;3.50;;;11.70;99.90;;;;;;4951217;29;20043;-67
2022/01/02 07:32:47;;;;;;;8.60;2.95;;;11.70;99.90;;;;;;4934192;29;20134;-67
2022/01/02 07:35:12;;;;;;;11.90;3.47;;;11.70;99.90;;;;;;4934452;29;20063;-67
2022/01/02 07:37:38;;;;;;;7.65;1.85;;;11.70;99.90;;;;;;4933470;29;20059;-67
2022/01/02 07:40:05;;;;;;;16.80;3.45;;;11.80;99.90;;;;;;4934615;29;20455;-67
2022/01/02 07:42:31;;;;;;;12.05;3.17;;;11.80;99.90;;;;;;4932812;29;20101;-67
2022/01/02 07:44:58;;;;;;;8.07;2.78;;;11.80;99.90;;;;;;4918927;29;20043;-67
2022/01/02 07:47:24;;;;;;;13.57;3.17;;;11.80;99.90;;;;;;4932990;29;20051;-67
2022/01/02 07:49:49;;;;;;;4.85;1.83;;;11.80;99.90;;;;;;4934130;29;20372;-67
2022/01/02 07:52:18;;;;;;;11.15;1.63;;;11.90;99.90;;;;;;4950003;28;20055;-67
2022/01/02 07:54:44;;;;;;;11.88;2.80;;;11.90;99.90;;;;;;4933238;29;20051;-67
2022/01/02 07:57:10;;;;;;;13.45;2.70;;;11.90;99.90;;;;;;4933682;29;20046;-67
2022/01/02 07:59:35;;;;;;;9.45;1.70;;;11.90;99.90;;;;;;4932760;29;20047;-67
2022/01/02 08:02:01;;;;;;;10.90;2.80;;;11.90;99.90;;;;;;4956146;28;20614;-67
2022/01/02 08:04:27;;;;;;;5.93;2.33;;;11.90;99.90;;;;;;4934161;29;20715;-67
2022/01/02 08:06:53;;;;;;;11.00;2.78;;;11.90;99.90;;;;;;4945892;29;20089;-68
2022/01/02 08:09:19;;;;;;;10.82;3.25;;;11.90;99.90;;;;;;4960484;28;20039;-67
2022/01/02 08:11:44;;;;;;;10.15;3.03;;;11.90;99.90;;;;;;4947188;29;20047;-67
2022/01/02 08:14:11;;;;;;;4.78;2.10;;;11.90;99.90;;;;;;4946212;29;20066;-66
2022/01/02 08:16:37;;;;;;;18.08;4.05;;;11.90;99.90;;;;;;4963078;28;20053;-67
2022/01/02 08:19:05;;;;;;;15.98;2.90;;;11.90;99.90;;;;;;4950990;28;20167;-67
2022/01/02 08:21:31;;;;;;;7.50;3.10;;;11.90;99.90;;;;;;4949119;29;20130;-67
2022/01/02 08:23:57;;;;;;;7.93;2.65;;;11.90;99.90;;;;;;4943270;29;20076;-67
2022/01/02 08:26:23;;;;;;;4.88;1.88;;;11.90;99.90;;;;;;4947884;29;20121;-67
2022/01/02 08:28:50;;;;;;;3.70;1.10;;;11.80;99.90;;;;;;4932646;29;20043;-67
2022/01/02 08:31:16;;;;;;;10.13;2.88;;;11.80;99.90;;;;;;4933052;29;20062;-67
2022/01/02 08:33:42;;;;;;;13.35;3.17;;;11.80;99.90;;;;;;4931748;29;20247;-67
2022/01/02 08:36:08;;;;;;;9.65;3.38;;;11.80;99.90;;;;;;4933405;29;20157;-68
2022/01/02 08:38:34;;;;;;;10.13;3.20;;;11.70;99.90;;;;;;4931523;29;20074;-67
2022/01/02 08:40:59;;;;;;;2.63;1.65;;;11.70;99.90;;;;;;4932105;29;20478;-68
2022/01/02 08:43:25;;;;;;;11.88;3.13;;;11.60;99.90;;;;;;4947381;28;20492;-67
2022/01/02 08:45:51;;;;;;;12.05;3.00;;;11.60;99.90;;;;;;4929565;29;20178;-67
2022/01/02 08:48:17;;;;;;;19.40;3.90;;;11.60;99.90;;;;;;4944292;29;20362;-67
2022/01/02 08:50:42;;;;;;;10.95;2.95;;;11.60;99.90;;;;;;4943623;29;20518;-67
2022/01/02 08:53:08;;;;;;;11.32;3.05;;;11.60;99.90;;;;;;4948406;29;20418;-67
2022/01/02 08:55:35;;;;;;;18.52;3.45;;;11.60;99.90;;;;;;4929108;29;20538;-67
2022/01/02 08:58:01;;;;;;;7.18;3.38;;;11.60;99.90;;;;;;4915788;29;20051;-67
2022/01/02 09:00:27;;;;;;;7.80;2.90;;;11.60;99.90;;;;;;4930888;29;20054;-67
2022/01/02 09:02:53;;;;;;;6.85;2.88;;;11.60;99.90;;;;;;4933133;29;20047;-66
2022/01/02 09:05:19;;;;;;;8.27;3.13;;;11.60;99.90;;;;;;4949542;29;20054;-66
2022/01/02 09:07:45;;;;;;;4.50;2.05;;;11.60;99.90;;;;;;4932234;29;20043;-66
2022/01/02 09:10:12;;;;;;;8.50;2.97;;;11.60;99.90;;;;;;4950196;29;20053;-66
2022/01/02 09:12:37;;;;;;;11.05;2.97;;;11.60;99.90;;;;;;4930396;29;20114;-66
2022/01/02 09:15:03;;;;;;;9.23;2.70;;;11.60;99.90;;;;;;4916654;29;20146;-66
2022/01/02 09:17:29;;;;;;;10.13;2.70;;;11.60;99.90;;;;;;4915261;29;20054;-66
2022/01/02 09:19:57;;;;;;;4.55;1.80;;;11.60;99.90;;;;;;4933116;29;20058;-66
2022/01/02 09:22:23;;;;;;;5.07;1.77;;;11.50;99.90;;;;;;4931256;29;20047;-66
2022/01/02 09:24:50;;;;;;;10.55;3.17;;;11.60;99.90;;;;;;4947665;29;20039;-67
2022/01/02 09:27:15;;;;;;;8.65;2.80;;;11.50;99.90;;;;;;4948848;29;20122;-66
2022/01/02 09:29:41;;;;;;;3.83;2.10;;;11.50;99.90;;;;;;4918271;29;20130;-67
2022/01/02 09:32:07;;;;;;;6.72;2.33;;;11.50;99.90;;;;;;4961401;28;20121;-67
2022/01/02 09:34:33;;;;;;;3.25;2.08;;;11.50;99.90;;;;;;4940872;29;20035;-67
2022/01/02 09:36:59;;;;;;;9.50;2.30;;;11.50;99.90;;;;;;4960259;28;20066;-67
2022/01/02 09:39:25;;;;;;;7.00;2.30;;;11.50;99.90;;;;;;4948039;29;20053;-67
2022/01/02 09:41:51;;;;;;;6.18;2.33;;;11.50;99.90;;;;;;4959145;28;20509;-67
2022/01/02 09:44:17;;;;;;;5.32;2.28;;;11.40;99.90;;;;;;4960683;28;20055;-66
2022/01/02 09:46:44;;;;;;;14.02;2.78;;;11.40;99.90;;;;;;4927847;29;20043;-66
2022/01/02 09:49:12;;;;;;;6.80;2.60;;;11.40;99.90;;;;;;4945808;29;20051;-66
2022/01/02 09:51:39;;;;;;;6.85;3.03;;;11.40;99.90;;;;;;4952338;28;20050;-66
2022/01/02 09:54:05;;;;;;;10.60;2.88;;;11.40;99.90;;;;;;4957025;28;20105;-66
2022/01/02 09:56:31;;;;;;;10.95;3.10;;;11.40;99.90;;;;;;4940532;29;20522;-66
2022/01/02 09:58:56;;;;;;;7.20;3.08;;;11.40;99.90;;;;;;4953800;28;20050;-66
2022/01/02 10:01:24;;;;;;;10.30;3.25;;;11.40;99.90;;;;;;4954678;28;20074;-67
2022/01/02 10:03:53;;;;;;;8.77;2.97;;;11.40;99.90;;;;;;4930663;29;20050;-67
2022/01/02 10:06:20;;;;;;;9.85;2.17;;;11.40;99.90;;;;;;4948129;29;20605;-66
2022/01/02 10:08:47;;;;;;;7.40;3.20;;;11.40;99.90;;;;;;4938267;29;20047;-67
2022/01/02 10:13:43;;;;;;;;;;;11.30;99.90;;;;;;4958684;28;20059;-66
2022/01/02 10:16:41;;;;;;;8.57;3.70;;;11.30;99.90;;;;;;4974378;28;19933;-66
2022/01/02 10:19:32;;;;;;;8.18;3.25;;;11.30;99.90;;;;;;4960736;28;20494;-66
2022/01/02 10:22:04;;;;;;;7.78;2.97;;;11.30;99.90;;;;;;4957872;28;20082;-67
2022/01/02 10:24:36;;;;;;;17.45;3.88;;;11.30;99.90;;;;;;4961531;28;20047;-66
2022/01/02 10:27:06;;;;;;;11.70;3.50;;;11.30;99.90;;;;;;4932475;29;20078;-67
2022/01/02 10:29:59;;;;;;;9.40;3.13;;;11.30;99.90;;;;;;4930837;29;20050;-66
2022/01/02 10:32:36;;;;;;;12.65;3.47;;;11.30;99.90;;;;;;4929103;29;20059;-67
2022/01/02 10:35:18;;;;;;;5.85;2.85;;;11.30;99.90;;;;;;4929575;29;20452;-66
2022/01/02 10:37:54;;;;;;;6.57;3.30;;;11.30;99.90;;;;;;4930649;29;20058;-67
2022/01/02 10:40:28;;;;;;;7.55;2.75;;;11.30;99.90;;;;;;4930724;29;20248;-66
2022/01/02 10:42:55;;;;;;;15.60;3.83;;;11.40;99.90;;;;;;4929701;29;20537;-66
2022/01/02 10:45:40;;;;;;;9.88;3.45;;;11.30;99.90;;;;;;4931137;29;20093;-66
2022/01/02 10:48:09;;;;;;;8.70;3.33;;;11.30;99.90;;;;;;4961676;28;20418;-66
2022/01/02 10:50:38;;;;;;;11.20;3.92;;;11.40;99.90;;;;;;4948540;29;20035;-66
2022/01/02 10:53:12;;;;;;;10.52;3.90;;;11.40;99.90;;;;;;4947126;28;20046;-66
2022/01/02 10:55:39;;;;;;;13.02;3.70;;;11.40;99.90;;;;;;4946936;29;20094;-66
2022/01/02 10:58:08;;;;;;;9.90;2.97;;;11.40;99.90;;;;;;4929664;29;20074;-66
2022/01/02 11:00:34;;;;;;;8.15;3.20;;;11.40;99.90;;;;;;4945759;28;20047;-66
2022/01/02 11:03:00;;;;;;;6.38;2.38;;;11.50;99.90;;;;;;4947764;28;20494;-66
2022/01/02 11:05:28;;;;;;;9.27;3.28;;;11.40;99.90;;;;;;4945177;28;20510;-66
2022/01/02 11:08:00;;;;;;;10.70;3.80;;;11.40;99.90;;;;;;4929969;29;20447;-66
2022/01/02 11:10:35;;;;;;;15.07;3.97;;;11.50;99.90;;;;;;4947658;28;20972;-66
2022/01/02 11:13:06;;;;;;;7.57;2.90;;;11.50;99.90;;;;;;4947892;29;20122;-66
2022/01/02 11:15:33;;;;;;;10.82;3.20;;;11.60;99.90;;;;;;4930801;29;20418;-66
2022/01/02 11:17:59;;;;;;;6.25;2.15;;;11.60;99.90;;;;;;4810599;29;20058;-66
2022/01/02 11:20:28;;;;;;;7.75;3.33;;;11.60;99.90;;;;;;4938736;29;20082;-66
2022/01/02 11:23:14;;;;;;;12.43;4.03;;;11.60;99.90;;;;;;4944594;28;20126;-66
2022/01/02 11:26:01;;;;;;;9.85;3.25;;;11.70;99.90;;;;;;4947494;29;20047;-66
2022/01/02 11:28:47;;;;;;;6.20;1.88;;;11.70;99.90;;;;;;4943655;29;20260;-66
2022/01/02 11:31:28;;;;;;;6.07;1.95;;;11.70;99.90;;;;;;4942521;29;20051;-65
2022/01/02 11:33:55;;;;;;;8.70;3.20;;;11.80;99.90;;;;;;4928145;29;20047;-66
2022/01/02 11:36:31;;;;;;;13.82;2.88;;;11.80;99.90;;;;;;4957264;28;20101;-66
2022/01/02 11:39:11;;;;;;;2.05;1.48;;;11.90;99.90;;;;;;4963330;28;20125;-67
2022/01/02 11:41:50;;;;;;;4.32;1.65;;;11.90;99.90;;;;;;4945053;28;20524;-66
2022/01/02 11:44:43;;;;;;;23.58;3.05;;;11.90;99.90;;;;;;4947372;28;20054;-66
2022/01/02 11:47:09;;;;;;;6.95;1.98;;;12.00;99.60;;;;;;4930960;29;20398;-66
2022/01/02 11:49:38;;;;;;;8.13;2.30;;;12.00;99.70;;;;;;4947997;28;20039;-66
2022/01/02 11:52:09;;;;;;;3.75;1.73;;;12.00;99.30;;;;;;4929145;29;20434;-66
2022/01/02 11:54:46;;;;;;;9.30;2.30;;;12.00;98.90;;;;;;4932500;29;20062;-66
2022/01/02 11:57:14;;;;;;;9.05;2.28;;;12.10;98.20;;;;;;4950455;28;20058;-66
2022/01/02 11:59:40;;;;;;;11.38;2.53;;;12.00;98.60;;;;;;4933920;29;20055;-66
2022/01/02 12:02:10;;;;;;;7.13;2.58;;;12.10;98.00;;;;;;4935050;28;20051;-66
2022/01/02 12:07:32;;;;;;;13.82;2.33;;;12.00;97.50;;;;;;4937665;28;20082;-66
2022/01/02 12:10:20;;;;;;;8.85;2.28;;;12.00;97.70;;;;;;4939260;29;20058;-66
2022/01/02 12:13:09;;;;;;;4.18;1.33;;;12.00;97.40;;;;;;4950908;28;20449;-66
2022/01/02 12:15:41;;;;;;;10.53;2.87;;;12.00;97.50;;;;;;4934023;29;20055;-66
2022/01/02 12:18:30;;;;;;;4.65;2.42;;;12.00;97.10;;;;;;4948317;29;20358;-65
2022/01/02 12:21:04;;;;;;;6.57;2.08;;;11.90;97.20;;;;;;4933365;28;20063;-66
2022/01/02 12:23:36;;;;;;;4.75;1.77;;;12.00;97.00;;;;;;4920918;29;20406;-66
2022/01/02 12:26:10;;;;;;;8.93;2.05;;;11.90;96.80;;;;;;4933421;28;20154;-66
2022/01/02 12:29:07;;;;;;;4.13;1.65;;;11.90;96.60;;;;;;4933779;29;20043;-66
2022/01/02 12:31:33;;;;;;;9.65;2.38;;;11.90;96.80;;;;;;4949201;28;20035;-66
2022/01/02 12:34:18;;;;;;;10.20;2.53;;;11.90;96.70;;;;;;4933439;29;20138;-66
2022/01/02 12:36:48;;;;;;;8.68;1.48;;;11.90;97.10;;;;;;4931877;29;20398;-66
2022/01/02 12:39:17;;;;;;;5.68;1.80;;;11.80;97.00;;;;;;4938406;29;20050;-66
2022/01/02 12:41:44;;;;;;;8.70;1.83;;;11.80;97.00;;;;;;4932357;29;20047;-66
2022/01/02 12:44:15;;;;;;;5.75;1.67;;;11.80;96.90;;;;;;4930317;29;20054;-66
2022/01/02 12:46:53;;;;;;;5.68;1.80;;;11.70;96.70;;;;;;4932012;29;20047;-66
2022/01/02 12:49:30;;;;;;;8.23;2.30;;;11.80;96.50;;;;;;4932082;29;20178;-66
2022/01/02 12:52:10;;;;;;;7.00;2.08;;;11.80;96.10;;;;;;4960039;28;20122;-66
2022/01/02 12:54:41;;;;;;;9.05;1.83;;;11.80;95.40;;;;;;4949070;29;20078;-66
2022/01/02 12:57:14;;;;;;;6.50;2.38;;;11.80;95.20;;;;;;4948756;29;20422;-66
2022/01/02 12:59:47;;;;;;;5.30;1.63;;;11.70;95.40;;;;;;4930137;29;20069;-66
2022/01/02 13:02:15;;;;;;;8.45;1.85;;;11.70;94.60;;;;;;4946062;29;20055;-66